Flight Track Log - Related Links

Times and Time Zones

All times are in EDT time to prevent confusion due to time zone crossing. See the GJS3707 flight status page for this flight to view local times or setup timezone preferences in your user account.


Time Position Orientation Groundspeed Altitude Reporting Facility
EDT Latitude Longitude Course Direction KTS MPH feet Rate Location/Type
Mon 03:47:52 PM 43.5436 -116.1564 81° East 175 201 4,800  Level Salt Lake Center
Mon 03:48:53 PM 43.5225 -116.0797 111° Southeast 202 232 6,700 1,902 Climbing Salt Lake Center
Mon 03:49:55 PM 43.5250 -115.9789 88° East 267 307 8,700 1,935 Climbing Salt Lake Center
Mon 03:50:00 PM 43.6554 -115.5738 78° East  Level FlightAware Approximate
Mon 03:50:57 PM 43.5447 -115.8672 76° East 288 331 10,700  Level Salt Lake Center
Mon 03:51:00 PM 43.6750 -115.4091 83° East  Level FlightAware Approximate
Mon 03:51:58 PM 43.5647 -115.7453 77° East 337 388 12,100  Level Salt Lake Center
Mon 03:52:00 PM 43.6956 -115.2465 65° Northeast  Level FlightAware Approximate
Mon 03:53:00 PM 43.7169 -115.0821 81° East  Level FlightAware Approximate
Mon 03:53:00 PM 43.5883 -115.6044 77° East 360 414 14,300  Level Salt Lake Center
Mon 03:54:02 PM 43.6117 -115.4575 78° East 376 433 16,000 1,707 Climbing Salt Lake Center
Mon 03:55:03 PM 43.6367 -115.3033 77° East 391 450 17,800 1,659 Climbing Salt Lake Center
Mon 03:56:05 PM 43.6606 -115.1586 77° East 399 459 19,400 1,500 Climbing Salt Lake Center
Mon 03:57:07 PM 43.6850 -114.9981 78° East 414 476 20,900 1,463 Climbing Salt Lake Center
Mon 03:58:08 PM 43.7100 -114.8467 77° East 424 488 22,400 1,415 Climbing Salt Lake Center
Mon 03:59:10 PM 43.7378 -114.6669 78° East 428 493 23,800 1,161 Climbing Salt Lake Center
Mon 04:00:12 PM 43.7619 -114.5061 78° East 445 512 24,800 1,016 Climbing Salt Lake Center
Mon 04:01:14 PM 43.7922 -114.3128 78° East 462 532 25,900 1,024 Climbing Salt Lake Center
Mon 04:02:15 PM 43.8178 -114.1439 78° East 470 541 26,900 1,024 Climbing Salt Lake Center
Mon 04:03:17 PM 43.8472 -113.9442 78° East 475 547 28,000 976 Climbing Salt Lake Center
Mon 04:04:18 PM 43.8719 -113.7778 78° East 475 547 28,900 976 Climbing Salt Lake Center
Mon 04:05:20 PM 43.9014 -113.5764 78° East 477 549 30,000 1,016 Climbing Salt Lake Center
Mon 04:06:22 PM 43.9239 -113.4033 80° East 477 549 31,000 1,024 Climbing Salt Lake Center
Mon 04:07:23 PM 43.9519 -113.2014 79° East 478 550 32,100 1,024 Climbing Salt Lake Center
Mon 04:08:25 PM 43.9764 -113.0303 79° East 474 545 33,100 726 Climbing Salt Lake Center
Mon 04:09:27 PM 43.9992 -112.8561 80° East 479 551 33,600 537 Climbing Salt Lake Center
Mon 04:10:28 PM 44.0297 -112.6514 78° East 486 559 34,200 537 Climbing Salt Lake Center
Mon 04:11:30 PM 44.0542 -112.4728 79° East 491 565 34,700 387 Climbing Salt Lake Center
Mon 04:12:32 PM 44.0803 -112.2619 80° East 497 572 35,000 146 Climbing Salt Lake Center
Mon 04:13:33 PM 44.0886 -112.0747 86° East 506 582 35,000  Level Salt Lake Center
Mon 04:14:35 PM 44.0917 -111.8561 89° East 511 588 35,000  Level Salt Lake Center
Mon 04:15:37 PM 44.0925 -111.6689 90° East 510 587 35,000  Level Salt Lake Center
Mon 04:16:38 PM 44.0942 -111.4486 89° East 514 592 35,000  Level Salt Lake Center
Mon 04:17:40 PM 44.0942 -111.2581 90° East 519 597 35,000  Level Salt Lake Center
Mon 04:18:42 PM 44.0931 -111.0353 90° East 519 597 35,000  Level Salt Lake Center
Mon 04:19:43 PM 44.0939 -110.8458 90° East 517 595 35,000  Level Salt Lake Center
Mon 04:20:45 PM 44.0942 -110.6278 90° East 509 586 35,000  Level Salt Lake Center
Mon 04:21:47 PM 44.0928 -110.4419 91° East 505 581 35,000  Level Salt Lake Center
Mon 04:22:48 PM 44.0922 -110.2550 90° East 506 582 35,000  Level Salt Lake Center
Mon 04:23:50 PM 44.0897 -110.0372 91° East 506 582 35,000  Level Salt Lake Center
Mon 04:24:52 PM 44.0864 -109.8486 91° East 511 588 35,000  Level Salt Lake Center
Mon 04:25:53 PM 44.0856 -109.6342 90° East 500 575 35,000  Level Salt Lake Center
Mon 04:26:55 PM 44.0817 -109.4286 91° East 501 577 35,000 48 Level Salt Lake Center
Mon 04:27:57 PM 44.0781 -109.2456 92° East 498 573 35,100  Climbing Salt Lake Center
Mon 04:28:58 PM 44.0625 -109.0622 97° East 499 574 35,000 -49 Descending Salt Lake Center
Mon 04:30:00 PM 44.0353 -108.8489 100° East 503 579 35,000  Level Salt Lake Center
Mon 04:31:02 PM 44.0147 -108.6650 99° East 505 581 35,000  Level Salt Lake Center
Mon 04:32:03 PM 43.9886 -108.4511 100° East 505 581 35,000 49 Level Salt Lake Center
Mon 04:33:05 PM 43.9689 -108.2692 99° East 501 577 35,100 146 Climbing Salt Lake Center
Mon 04:34:06 PM 43.9461 -108.0583 98° East 497 572 35,300 537 Climbing Salt Lake Center
Mon 04:35:08 PM 43.9319 -107.8794 96° East 490 564 36,200 878 Climbing Salt Lake Center
Mon 04:36:09 PM 43.9194 -107.6761 95° East 476 548 37,100 390 Climbing Salt Lake Center
Mon 04:37:11 PM 43.8989 -107.5019 99° East 479 551 37,000 -48 Descending Salt Lake Center
Mon 04:38:13 PM 43.8656 -107.3311 105° East 482 555 37,000  Level Salt Lake Center
Mon 04:39:14 PM 43.8292 -107.1333 104° East 478 550 37,000  Level Salt Lake Center
Mon 04:39:38 PM 43.8214 -107.0728 100° East 479 551 37,000  Level Denver Center
Mon 04:40:40 PM 43.7872 -106.8742 103° East 477 549 37,000 -61 Level Denver Center
Mon 04:41:17 PM 43.7672 -106.7639 104° East 475 547 36,900  Descending Salt Lake Center
Mon 04:42:19 PM 43.7367 -106.5922 104° East 477 549 37,000 69 Climbing Salt Lake Center
Mon 04:42:44 PM 43.7189 -106.5064 106° East 480 552 37,000  Level Denver Center
Mon 04:43:46 PM 43.6889 -106.3367 104° East 477 549 37,000  Level Denver Center
Mon 04:44:22 PM 43.6683 -106.2233 104° East 479 551 37,000  Level Salt Lake Center
Mon 04:45:24 PM 43.6372 -106.0503 104° East 486 559 37,000  Level Salt Lake Center
Mon 04:45:49 PM 43.6214 -105.9653 104° East 479 551 37,000  Level Denver Center
Mon 04:46:51 PM 43.5856 -105.7664 104° East 480 552 37,000  Level Denver Center
Mon 04:47:53 PM 43.5631 -105.5922 100° East 483 556 37,000  Level Denver Center
Mon 04:48:55 PM 43.5708 -105.4119 87° East 493 567 37,000  Level Denver Center
Mon 04:49:57 PM 43.5825 -105.2031 86° East 490 564 37,000  Level Denver Center
Mon 04:50:59 PM 43.5889 -105.0219 87° East 492 566 37,000  Level Denver Center
Mon 04:52:01 PM 43.5989 -104.8092 86° East 496 571 37,000  Level Denver Center
Mon 04:53:03 PM 43.6069 -104.6250 86° East 499 574 37,000 -48 Level Denver Center
Mon 04:54:05 PM 43.6158 -104.4164 87° East 489 563 36,900  Descending Denver Center
Mon 04:55:07 PM 43.6222 -104.2431 87° East 476 548 37,000 48 Climbing Denver Center
Mon 04:56:09 PM 43.6267 -104.0761 88° East 458 527 37,000  Level Denver Center
Mon 04:57:11 PM 43.6328 -103.8772 88° East 465 535 37,000  Level Denver Center
Mon 04:58:12 PM 43.6389 -103.7039 87° East 470 541 37,000  Level Denver Center
Mon 04:59:15 PM 43.6453 -103.5028 87° East 470 541 37,000  Level Denver Center
Mon 05:00:17 PM 43.6519 -103.3314 87° East 469 540 37,000  Level Denver Center
Mon 05:01:19 PM 43.6561 -103.1244 88° East 477 549 37,000  Level Denver Center
Mon 05:02:21 PM 43.6600 -102.9506 88° East 476 548 37,000  Level Denver Center
Mon 05:03:22 PM 43.6628 -102.8033 88° East 479 551 37,000  Level Denver Center
Mon 05:04:25 PM 43.6664 -102.5678 89° East 480 552 37,000  Level Denver Center
Mon 05:05:27 PM 43.6722 -102.3675 88° East 472 543 37,000  Level Denver Center
Mon 05:06:29 PM 43.6764 -102.1944 88° East 473 544 37,000  Level Denver Center
Mon 05:07:31 PM 43.6794 -101.9925 89° East 477 549 37,000  Level Denver Center
Mon 05:08:34 PM 43.6836 -101.8114 88° East 474 545 37,000  Level Denver Center
Mon 05:09:35 PM 43.6853 -101.6300 89° East 474 545 37,000  Level Denver Center
Mon 05:10:39 PM 43.6869 -101.4850 89° East 474 545 37,000  Level Minneapolis Center
Mon 05:11:38 PM 43.6897 -101.2642 89° East 479 551 37,000  Level Denver Center
Mon 05:12:43 PM 43.6964 -101.0447 88° East 480 552 37,000  Level Minneapolis Center
Mon 05:13:45 PM 43.7097 -100.8622 84° East 480 552 37,000  Level Minneapolis Center
Mon 05:14:47 PM 43.7208 -100.6769 85° East 485 558 37,000  Level Minneapolis Center
Mon 05:15:49 PM 43.7322 -100.4897 85° East 488 562 37,000  Level Minneapolis Center
Mon 05:16:51 PM 43.7439 -100.3039 85° East 488 562 37,000  Level Minneapolis Center
Mon 05:17:53 PM 43.7547 -100.1175 85° East 489 563 37,000  Level Minneapolis Center
Mon 05:18:55 PM 43.7667 -99.8911 86° East 492 566 37,000  Level Minneapolis Center
Mon 05:19:57 PM 43.7764 -99.7033 86° East 492 566 37,000  Level Minneapolis Center
Mon 05:20:59 PM 43.7858 -99.5158 86° East 492 566 37,000  Level Minneapolis Center
Mon 05:22:01 PM 43.7953 -99.3314 86° East 486 559 37,000  Level Minneapolis Center
Mon 05:23:03 PM 43.8047 -99.1456 86° East 486 559 37,000  Level Minneapolis Center
Mon 05:24:05 PM 43.8131 -98.9581 86° East 489 563 37,000  Level Minneapolis Center
Mon 05:25:07 PM 43.8236 -98.7342 86° East 489 563 37,000  Level Minneapolis Center
Mon 05:26:09 PM 43.8308 -98.5531 87° East 493 567 37,000  Level Minneapolis Center
Mon 05:27:10 PM 43.8389 -98.3664 87° East 490 564 37,000  Level Minneapolis Center
Mon 05:28:12 PM 43.8464 -98.1758 87° East 495 570 37,000  Level Minneapolis Center
Mon 05:29:14 PM 43.8522 -98.0228 87° East 498 573 37,000  Level Minneapolis Center
Mon 05:30:28 PM 43.8622 -97.7539 87° East 500 575 37,000  Level Minneapolis Center
Mon 05:31:30 PM 43.8703 -97.5239 87° East 500 575 37,000  Level Minneapolis Center
Mon 05:32:32 PM 43.8767 -97.3331 87° East 499 574 37,000  Level Minneapolis Center
Mon 05:33:34 PM 43.8819 -97.1419 88° East 499 574 37,000  Level Minneapolis Center
Mon 05:34:36 PM 43.8878 -96.9511 88° East 499 574 37,000  Level Minneapolis Center
Mon 05:35:38 PM 43.8939 -96.7231 88° East 498 573 37,000  Level Minneapolis Center
Mon 05:36:40 PM 43.8981 -96.5344 88° East 496 571 37,000  Level Minneapolis Center
Mon 05:37:42 PM 43.9025 -96.3447 88° East 498 573 37,000  Level Minneapolis Center
Mon 05:38:43 PM 43.9078 -96.1558 88° East 500 575 37,000  Level Minneapolis Center
Mon 05:39:45 PM 43.9119 -95.9669 88° East 498 573 37,000  Level Minneapolis Center
Mon 05:40:47 PM 43.9164 -95.7389 88° East 500 575 37,000  Level Minneapolis Center
Mon 05:41:49 PM 43.9186 -95.5478 89° East 500 575 37,000  Level Minneapolis Center
Mon 05:42:51 PM 43.9222 -95.3575 88° East 497 572 37,000  Level Minneapolis Center
Mon 05:43:53 PM 43.9239 -95.1644 89° East 503 579 37,000  Level Minneapolis Center
Mon 05:44:55 PM 43.9264 -94.9719 89° East 501 577 37,000  Level Minneapolis Center
Mon 05:45:57 PM 43.9289 -94.7806 89° East 499 574 37,000  Level Minneapolis Center
Mon 05:46:59 PM 43.9308 -94.5517 89° East 497 572 37,000  Level Minneapolis Center
Mon 05:48:00 PM 43.9322 -94.3589 89° East 500 575 37,000  Level Minneapolis Center
Mon 05:49:02 PM 43.9319 -94.1842 90° East 502 578 37,000  Level Minneapolis Center
Mon 05:50:04 PM 43.9328 -93.9547 90° East 500 575 37,000  Level Minneapolis Center
Mon 05:51:06 PM 43.9317 -93.7642 90° East 499 574 37,000  Level Minneapolis Center
Mon 05:52:08 PM 43.9333 -93.5731 89° East 500 575 37,000  Level Minneapolis Center
Mon 05:53:09 PM 43.9328 -93.4214 90° East 498 573 37,000  Level Minneapolis Center
Mon 05:54:12 PM 43.9325 -93.1911 90° East 502 578 37,000  Level Minneapolis Center
Mon 05:55:13 PM 43.9136 -92.9636 96° East 500 575 37,000  Level Minneapolis Center
Mon 05:56:15 PM 43.8933 -92.7736 98° East 501 577 37,000  Level Minneapolis Center
Mon 05:57:17 PM 43.8753 -92.5836 97° East 502 578 37,000  Level Minneapolis Center
Mon 05:58:19 PM 43.8553 -92.3928 98° East 504 580 37,000  Level Minneapolis Center
Mon 05:59:21 PM 43.8356 -92.2008 98° East 507 583 37,000 -290 Level Minneapolis Center
Mon 06:00:23 PM 43.8136 -92.0089 99° East 507 583 36,400 -829 Descending Minneapolis Center
Mon 06:01:24 PM 43.7911 -91.7831 98° East 520 598 35,300 -1,024 Descending Minneapolis Center
Mon 06:02:26 PM 43.7706 -91.5933 98° East 505 581 34,300 -968 Descending Minneapolis Center
Mon 06:03:28 PM 43.7503 -91.4064 98° East 496 571 33,300 -878 Descending Minneapolis Center
Mon 06:04:29 PM 43.7322 -91.2575 99° East 495 570 32,500 -1,016 Descending Minneapolis Center
Mon 06:05:32 PM 43.7072 -91.0347 99° East 493 567 31,200 -726 Descending Minneapolis Center
Mon 06:06:33 PM 43.6806 -90.8131 99° East 489 563 31,000 -98 Descending Minneapolis Center
Mon 06:07:35 PM 43.6594 -90.6281 99° East 490 564 31,000 -581 Level Minneapolis Center
Mon 06:08:37 PM 43.6375 -90.4411 99° East 494 568 29,800 -1,306 Descending Minneapolis Center
Mon 06:09:39 PM 43.6142 -90.2561 100° East 493 567 28,300 -1,463 Descending Minneapolis Center
Mon 06:10:40 PM 43.5914 -90.0758 100° East 474 545 26,800 -1,463 Descending Minneapolis Center
Mon 06:11:42 PM 43.5697 -89.9028 100° East 462 532 25,300 -1,645 Descending Minneapolis Center
Mon 06:12:44 PM 43.5164 -89.7264 113° Southeast 446 513 23,400 -1,839 Descending Minneapolis Center
Mon 06:13:46 PM 43.4233 -89.6294 143° Southeast 425 489 21,500 -1,659 Descending Minneapolis Center
Mon 06:14:47 PM 43.3328 -89.5358 143° Southeast 415 478 20,000 -1,463 Descending Minneapolis Center
Mon 06:15:49 PM 43.2442 -89.4439 143° Southeast 405 466 18,500 -1,324 Descending Minneapolis Center
Mon 06:17:03 PM 43.1558 -89.3531 143° Southeast 400 460 17,000 -1,544 Descending Minneapolis Center
Mon 06:18:05 PM 43.0228 -89.2919 161° South 376 433 15,000 -1,500 Descending Chicago Center
Mon 06:19:07 PM 42.9278 -89.2544 164° South 359 413 13,900 -1,065 Descending Chicago Center

Login

Don't have an account? Register now (free) for customized features, flight alerts, and more!